sensor_id;sensor_type;location;lat;lon;timestamp;pressure;altitude;pressure_sealevel;temperature;humidity
79463;BME280;68931;47.286;18.756;2023-07-24T00:00:13;100342.31;;;19.70;83.77
79463;BME280;68931;47.286;18.756;2023-07-24T00:00:45;100330.59;;;19.63;83.78
79463;BME280;68931;47.286;18.756;2023-07-24T00:01:17;100345.00;;;19.70;83.55
79463;BME280;68931;47.286;18.756;2023-07-24T00:01:49;100311.91;;;19.55;84.19
79463;BME280;68931;47.286;18.756;2023-07-24T00:02:21;100341.34;;;19.71;84.12
79463;BME280;68931;47.286;18.756;2023-07-24T00:02:53;100322.09;;;19.60;83.96
79463;BME280;68931;47.286;18.756;2023-07-24T00:03:27;100337.19;;;19.69;83.66
79463;BME280;68931;47.286;18.756;2023-07-24T00:03:59;100333.97;;;19.65;84.09
79463;BME280;68931;47.286;18.756;2023-07-24T00:04:32;100337.19;;;19.69;84.05
79463;BME280;68931;47.286;18.756;2023-07-24T00:05:04;100322.41;;;19.57;83.63
79463;BME280;68931;47.286;18.756;2023-07-24T00:05:36;100340.81;;;19.68;83.64
79463;BME280;68931;47.286;18.756;2023-07-24T00:06:08;100333.28;;;19.63;83.78
79463;BME280;68931;47.286;18.756;2023-07-24T00:06:40;100308.16;;;19.48;84.00
79463;BME280;68931;47.286;18.756;2023-07-24T00:07:12;100335.78;;;19.65;84.46
79463;BME280;68931;47.286;18.756;2023-07-24T00:07:47;100335.50;;;19.68;84.01
79463;BME280;68931;47.286;18.756;2023-07-24T00:08:19;100329.94;;;19.61;83.99
79463;BME280;68931;47.286;18.756;2023-07-24T00:08:51;100332.91;;;19.58;84.39
79463;BME280;68931;47.286;18.756;2023-07-24T00:09:23;100333.75;;;19.59;84.52
79463;BME280;68931;47.286;18.756;2023-07-24T00:09:56;100323.38;;;19.56;84.50
79463;BME280;68931;47.286;18.756;2023-07-24T00:10:28;100335.09;;;19.63;84.02
79463;BME280;68931;47.286;18.756;2023-07-24T00:11:00;100317.69;;;19.50;84.35
79463;BME280;68931;47.286;18.756;2023-07-24T00:11:32;100332.44;;;19.63;84.53
79463;BME280;68931;47.286;18.756;2023-07-24T00:12:04;100335.09;;;19.63;84.32
79463;BME280;68931;47.286;18.756;2023-07-24T00:12:36;100320.72;;;19.56;84.05
79463;BME280;68931;47.286;18.756;2023-07-24T00:13:08;100326.44;;;19.61;83.87
79463;BME280;68931;47.286;18.756;2023-07-24T00:13:40;100328.94;;;19.62;83.95
79463;BME280;68931;47.286;18.756;2023-07-24T00:14:12;100329.09;;;19.61;83.34
79463;BME280;68931;47.286;18.756;2023-07-24T00:14:44;100336.47;;;19.67;83.41
79463;BME280;68931;47.286;18.756;2023-07-24T00:15:16;100335.50;;;19.68;83.42
79463;BME280;68931;47.286;18.756;2023-07-24T00:15:51;100323.78;;;19.61;82.92
79463;BME280;68931;47.286;18.756;2023-07-24T00:16:23;100332.97;;;19.66;83.08
79463;BME280;68931;47.286;18.756;2023-07-24T00:16:55;100326.81;;;19.66;83.19
79463;BME280;68931;47.286;18.756;2023-07-24T00:17:30;100330.88;;;19.70;82.92
79463;BME280;68931;47.286;18.756;2023-07-24T00:18:05;100329.84;;;19.71;82.78
79463;BME280;68931;47.286;18.756;2023-07-24T00:18:37;100334.81;;;19.66;82.88
79463;BME280;68931;47.286;18.756;2023-07-24T00:19:09;100332.16;;;19.66;83.07
79463;BME280;68931;47.286;18.756;2023-07-24T00:19:43;100337.47;;;19.66;82.84
79463;BME280;68931;47.286;18.756;2023-07-24T00:20:15;100325.59;;;19.60;83.07
79463;BME280;68931;47.286;18.756;2023-07-24T00:20:47;100345.31;;;19.67;83.22
79463;BME280;68931;47.286;18.756;2023-07-24T00:21:19;100323.38;;;19.56;83.12
79463;BME280;68931;47.286;18.756;2023-07-24T00:21:51;100351.91;;;19.63;82.88
79463;BME280;68931;47.286;18.756;2023-07-24T00:22:23;100329.69;;;19.54;83.33
79463;BME280;68931;47.286;18.756;2023-07-24T00:22:55;100326.19;;;19.54;83.26
79463;BME280;68931;47.286;18.756;2023-07-24T00:23:27;100338.38;;;19.57;83.21
79463;BME280;68931;47.286;18.756;2023-07-24T00:23:59;100327.16;;;19.53;83.41
79463;BME280;68931;47.286;18.756;2023-07-24T00:24:34;100325.34;;;19.53;83.46
79463;BME280;68931;47.286;18.756;2023-07-24T00:25:07;100336.84;;;19.54;83.33
79463;BME280;68931;47.286;18.756;2023-07-24T00:25:40;100333.88;;;19.57;82.87
79463;BME280;68931;47.286;18.756;2023-07-24T00:26:12;100318.09;;;19.46;83.28
79463;BME280;68931;47.286;18.756;2023-07-24T00:26:47;100331.81;;;19.51;83.36
79463;BME280;68931;47.286;18.756;2023-07-24T00:27:19;100320.22;;;19.42;83.12
79463;BME280;68931;47.286;18.756;2023-07-24T00:27:51;100335.47;;;19.50;83.46
79463;BME280;68931;47.286;18.756;2023-07-24T00:28:23;100333.66;;;19.50;83.51
79463;BME280;68931;47.286;18.756;2023-07-24T00:28:55;100326.22;;;19.44;83.69
79463;BME280;68931;47.286;18.756;2023-07-24T00:29:27;100332.81;;;19.50;83.49
79463;BME280;68931;47.286;18.756;2023-07-24T00:29:58;100315.19;;;19.39;83.55
79463;BME280;68931;47.286;18.756;2023-07-24T00:30:30;100331.72;;;19.43;83.69
79463;BME280;68931;47.286;18.756;2023-07-24T00:31:02;100332.84;;;19.40;84.03
79463;BME280;68931;47.286;18.756;2023-07-24T00:31:35;100335.50;;;19.40;84.34
79463;BME280;68931;47.286;18.756;2023-07-24T00:32:07;100332.97;;;19.39;84.52
79463;BME280;68931;47.286;18.756;2023-07-24T00:32:39;100322.38;;;19.29;84.22
79463;BME280;68931;47.286;18.756;2023-07-24T00:33:11;100317.53;;;19.25;84.35
79463;BME280;68931;47.286;18.756;2023-07-24T00:33:43;100324.34;;;19.27;84.50
79463;BME280;68931;47.286;18.756;2023-07-24T00:34:15;100325.31;;;19.26;84.58
79463;BME280;68931;47.286;18.756;2023-07-24T00:34:47;100333.03;;;19.29;84.84
79463;BME280;68931;47.286;18.756;2023-07-24T00:35:22;100312.78;;;19.18;84.94
79463;BME280;68931;47.286;18.756;2023-07-24T00:35:57;100320.59;;;19.20;84.67
79463;BME280;68931;47.286;18.756;2023-07-24T00:36:29;100327.59;;;19.21;84.47
79463;BME280;68931;47.286;18.756;2023-07-24T00:37:01;100316.16;;;19.11;84.67
79463;BME280;68931;47.286;18.756;2023-07-24T00:37:33;100319.06;;;19.17;84.61
79463;BME280;68931;47.286;18.756;2023-07-24T00:38:05;100327.91;;;19.18;84.87
79463;BME280;68931;47.286;18.756;2023-07-24T00:38:38;100334.59;;;19.22;84.55
79463;BME280;68931;47.286;18.756;2023-07-24T00:39:11;100320.47;;;19.22;84.53
79463;BME280;68931;47.286;18.756;2023-07-24T00:39:43;100324.09;;;19.21;84.35
79463;BME280;68931;47.286;18.756;2023-07-24T00:40:15;100330.97;;;19.23;84.43
79463;BME280;68931;47.286;18.756;2023-07-24T00:40:47;100314.06;;;19.14;84.97
79463;BME280;68931;47.286;18.756;2023-07-24T00:41:19;100316.88;;;19.13;84.78
79463;BME280;68931;47.286;18.756;2023-07-24T00:41:51;100314.75;;;19.16;84.45
79463;BME280;68931;47.286;18.756;2023-07-24T00:42:23;100312.69;;;19.10;84.25
79463;BME280;68931;47.286;18.756;2023-07-24T00:42:55;100306.97;;;19.05;84.81
79463;BME280;68931;47.286;18.756;2023-07-24T00:43:27;100315.34;;;19.10;84.98
79463;BME280;68931;47.286;18.756;2023-07-24T00:43:59;100306.13;;;19.05;85.01
79463;BME280;68931;47.286;18.756;2023-07-24T00:44:31;100315.78;;;19.06;84.91
79463;BME280;68931;47.286;18.756;2023-07-24T00:45:03;100310.47;;;19.06;85.22
79463;BME280;68931;47.286;18.756;2023-07-24T00:45:35;100307.94;;;19.04;85.00
79463;BME280;68931;47.286;18.756;2023-07-24T00:46:09;100283.69;;;18.90;85.24
79463;BME280;68931;47.286;18.756;2023-07-24T00:46:42;100315.78;;;19.06;85.03
79463;BME280;68931;47.286;18.756;2023-07-24T00:47:14;100308.56;;;18.98;85.40
79463;BME280;68931;47.286;18.756;2023-07-24T00:47:46;100311.88;;;19.00;85.15
79463;BME280;68931;47.286;18.756;2023-07-24T00:48:19;100304.22;;;18.97;85.24
79463;BME280;68931;47.286;18.756;2023-07-24T00:48:51;100312.72;;;19.01;85.42
79463;BME280;68931;47.286;18.756;2023-07-24T00:49:24;100300.16;;;18.93;84.98
79463;BME280;68931;47.286;18.756;2023-07-24T00:49:56;100314.13;;;19.05;85.34
79463;BME280;68931;47.286;18.756;2023-07-24T00:50:29;100301.56;;;18.97;85.43
79463;BME280;68931;47.286;18.756;2023-07-24T00:51:05;100313.28;;;19.04;85.04
79463;BME280;68931;47.286;18.756;2023-07-24T00:51:37;100306.72;;;18.99;85.46
79463;BME280;68931;47.286;18.756;2023-07-24T00:52:12;100301.56;;;18.97;85.58
79463;BME280;68931;47.286;18.756;2023-07-24T00:52:45;100310.06;;;19.01;85.06
79463;BME280;68931;47.286;18.756;2023-07-24T00:53:19;100303.91;;;19.00;84.75
79463;BME280;68931;47.286;18.756;2023-07-24T00:53:51;100309.22;;;19.00;85.12
79463;BME280;68931;47.286;18.756;2023-07-24T00:54:24;100300.47;;;18.90;85.20
79463;BME280;68931;47.286;18.756;2023-07-24T00:54:56;100321.53;;;19.01;85.15
79463;BME280;68931;47.286;18.756;2023-07-24T00:55:28;100317.38;;;18.99;85.22
79463;BME280;68931;47.286;18.756;2023-07-24T00:56:00;100314.53;;;19.00;85.37
79463;BME280;68931;47.286;18.756;2023-07-24T00:56:33;100316.34;;;19.00;85.79
79463;BME280;68931;47.286;18.756;2023-07-24T00:57:06;100311.50;;;18.95;85.54
79463;BME280;68931;47.286;18.756;2023-07-24T00:57:39;100318.50;;;18.96;85.84
79463;BME280;68931;47.286;18.756;2023-07-24T00:58:12;100296.56;;;18.85;85.68
79463;BME280;68931;47.286;18.756;2023-07-24T00:58:44;100301.31;;;18.91;85.46
79463;BME280;68931;47.286;18.756;2023-07-24T00:59:19;100314.03;;;18.87;85.66
79463;BME280;68931;47.286;18.756;2023-07-24T00:59:51;100313.22;;;18.87;85.94
79463;BME280;68931;47.286;18.756;2023-07-24T01:00:24;100313.75;;;18.90;86.10
79463;BME280;68931;47.286;18.756;2023-07-24T01:00:56;100308.88;;;18.86;85.90
79463;BME280;68931;47.286;18.756;2023-07-24T01:01:28;100306.81;;;18.79;85.90
79463;BME280;68931;47.286;18.756;2023-07-24T01:02:01;100300.38;;;18.82;85.88
79463;BME280;68931;47.286;18.756;2023-07-24T01:02:33;100313.34;;;18.85;85.86
79463;BME280;68931;47.286;18.756;2023-07-24T01:03:06;100296.72;;;18.73;85.86
79463;BME280;68931;47.286;18.756;2023-07-24T01:03:43;100310.16;;;18.82;85.76
79463;BME280;68931;47.286;18.756;2023-07-24T01:04:22;100304.00;;;18.81;85.97
79463;BME280;68931;47.286;18.756;2023-07-24T01:04:54;100302.47;;;18.78;86.19
79463;BME280;68931;47.286;18.756;2023-07-24T01:05:26;100298.84;;;18.70;86.03
79463;BME280;68931;47.286;18.756;2023-07-24T01:06:00;100292.69;;;18.69;86.17
79463;BME280;68931;47.286;18.756;2023-07-24T01:06:32;100307.09;;;18.76;86.21
79463;BME280;68931;47.286;18.756;2023-07-24T01:07:05;100288.66;;;18.65;86.09
79463;BME280;68931;47.286;18.756;2023-07-24T01:07:37;100303.19;;;18.71;86.43
79463;BME280;68931;47.286;18.756;2023-07-24T01:08:09;100300.22;;;18.74;86.63
79463;BME280;68931;47.286;18.756;2023-07-24T01:08:50;100305.41;;;18.75;86.57
79463;BME280;68931;47.286;18.756;2023-07-24T01:09:22;100307.91;;;18.77;86.63
79463;BME280;68931;47.286;18.756;2023-07-24T01:09:54;100305.72;;;18.72;86.64
79463;BME280;68931;47.286;18.756;2023-07-24T01:10:26;100307.09;;;18.76;86.95
79463;BME280;68931;47.286;18.756;2023-07-24T01:11:05;100292.69;;;18.69;86.89
79463;BME280;68931;47.286;18.756;2023-07-24T01:12:04;100308.19;;;18.74;87.11
79463;BME280;68931;47.286;18.756;2023-07-24T01:12:49;100301.94;;;18.65;87.34
79463;BME280;68931;47.286;18.756;2023-07-24T01:13:29;100304.59;;;18.65;87.29
79463;BME280;68931;47.286;18.756;2023-07-24T01:14:12;100309.75;;;18.67;87.41
79463;BME280;68931;47.286;18.756;2023-07-24T01:15:10;100285.59;;;18.51;87.30
79463;BME280;68931;47.286;18.756;2023-07-24T01:15:54;100311.91;;;18.63;87.46
79463;BME280;68931;47.286;18.756;2023-07-24T01:16:36;100292.72;;;18.50;87.39
79463;BME280;68931;47.286;18.756;2023-07-24T01:17:10;100293.41;;;18.52;87.92
79463;BME280;68931;47.286;18.756;2023-07-24T01:17:48;100298.19;;;18.58;87.74
79463;BME280;68931;47.286;18.756;2023-07-24T01:18:24;100306.28;;;18.66;87.64
79463;BME280;68931;47.286;18.756;2023-07-24T01:18:57;100291.19;;;18.57;88.14
79463;BME280;68931;47.286;18.756;2023-07-24T01:19:42;100300.28;;;18.64;87.65
79463;BME280;68931;47.286;18.756;2023-07-24T01:20:17;100289.22;;;18.59;87.59
79463;BME280;68931;47.286;18.756;2023-07-24T01:20:55;100299.28;;;18.65;87.34
79463;BME280;68931;47.286;18.756;2023-07-24T01:21:36;100301.25;;;18.63;87.94
79463;BME280;68931;47.286;18.756;2023-07-24T01:23:59;100308.94;;;18.66;88.15
79463;BME280;68931;47.286;18.756;2023-07-24T01:25:28;100308.53;;;18.61;88.11
79463;BME280;68931;47.286;18.756;2023-07-24T01:26:03;100284.75;;;18.50;88.13
79463;BME280;68931;47.286;18.756;2023-07-24T01:26:35;100312.88;;;18.62;87.74
79463;BME280;68931;47.286;18.756;2023-07-24T01:27:07;100315.53;;;18.62;88.45
79463;BME280;68931;47.286;18.756;2023-07-24T01:27:44;100295.81;;;18.55;88.05
79463;BME280;68931;47.286;18.756;2023-07-24T01:28:16;100296.78;;;18.54;88.35
79463;BME280;68931;47.286;18.756;2023-07-24T01:28:48;100306.41;;;18.65;88.01
79463;BME280;68931;47.286;18.756;2023-07-24T01:29:20;100296.63;;;18.56;88.16
79463;BME280;68931;47.286;18.756;2023-07-24T01:29:52;100306.56;;;18.63;88.28
79463;BME280;68931;47.286;18.756;2023-07-24T01:30:25;100305.75;;;18.63;88.11
79463;BME280;68931;47.286;18.756;2023-07-24T01:30:57;100308.25;;;18.64;87.86
79463;BME280;68931;47.286;18.756;2023-07-24T01:31:29;100272.31;;;18.41;88.46
79463;BME280;68931;47.286;18.756;2023-07-24T01:32:01;100285.03;;;18.47;87.82
79463;BME280;68931;47.286;18.756;2023-07-24T01:32:33;100317.22;;;18.63;88.29
79463;BME280;68931;47.286;18.756;2023-07-24T01:33:05;100295.81;;;18.55;88.13
79463;BME280;68931;47.286;18.756;2023-07-24T01:33:37;100293.28;;;18.54;87.97
79463;BME280;68931;47.286;18.756;2023-07-24T01:34:10;100302.66;;;18.58;88.58
79463;BME280;68931;47.286;18.756;2023-07-24T01:34:45;100295.66;;;18.57;88.35
79463;BME280;68931;47.286;18.756;2023-07-24T01:35:17;100281.56;;;18.47;88.21
79463;BME280;68931;47.286;18.756;2023-07-24T01:35:54;100275.69;;;18.43;88.14
79463;BME280;68931;47.286;18.756;2023-07-24T01:36:27;100282.53;;;18.55;88.02
79463;BME280;68931;47.286;18.756;2023-07-24T01:36:59;100290.34;;;18.57;88.36
79463;BME280;68931;47.286;18.756;2023-07-24T01:37:34;100306.28;;;18.66;88.12
79463;BME280;68931;47.286;18.756;2023-07-24T01:38:07;100297.63;;;18.64;88.26
79463;BME280;68931;47.286;18.756;2023-07-24T01:38:40;100286.16;;;18.54;88.39
79463;BME280;68931;47.286;18.756;2023-07-24T01:39:12;100293.72;;;18.59;88.39
79463;BME280;68931;47.286;18.756;2023-07-24T01:39:45;100307.94;;;18.67;88.14
79463;BME280;68931;47.286;18.756;2023-07-24T01:40:19;100276.91;;;18.49;87.98
79463;BME280;68931;47.286;18.756;2023-07-24T01:40:53;100289.47;;;18.56;88.00
79463;BME280;68931;47.286;18.756;2023-07-24T01:41:26;100299.59;;;18.62;87.72
79463;BME280;68931;47.286;18.756;2023-07-24T01:41:58;100296.47;;;18.67;87.66
79463;BME280;68931;47.286;18.756;2023-07-24T01:42:34;100303.47;;;18.68;88.04
79463;BME280;68931;47.286;18.756;2023-07-24T01:43:06;100301.50;;;18.70;88.05
79463;BME280;68931;47.286;18.756;2023-07-24T01:43:38;100303.72;;;18.74;87.95
79463;BME280;68931;47.286;18.756;2023-07-24T01:44:10;100305.72;;;18.72;87.89
79463;BME280;68931;47.286;18.756;2023-07-24T01:44:42;100293.28;;;18.63;88.06
79463;BME280;68931;47.286;18.756;2023-07-24T01:45:14;100302.34;;;18.70;87.95
79463;BME280;68931;47.286;18.756;2023-07-24T01:45:46;100296.06;;;18.71;88.09
79463;BME280;68931;47.286;18.756;2023-07-24T01:46:18;100306.56;;;18.73;88.54
79463;BME280;68931;47.286;18.756;2023-07-24T01:46:50;100301.50;;;18.70;88.18
79463;BME280;68931;47.286;18.756;2023-07-24T01:47:22;100295.34;;;18.69;88.69
79463;BME280;68931;47.286;18.756;2023-07-24T01:47:54;100285.00;;;18.66;88.39
79463;BME280;68931;47.286;18.756;2023-07-24T01:48:26;100299.00;;;18.68;88.72
79463;BME280;68931;47.286;18.756;2023-07-24T01:48:58;100295.34;;;18.69;88.49
79463;BME280;68931;47.286;18.756;2023-07-24T01:49:30;100287.00;;;18.64;88.72
79463;BME280;68931;47.286;18.756;2023-07-24T01:50:03;100281.38;;;18.67;88.77
79463;BME280;68931;47.286;18.756;2023-07-24T01:50:35;100280.00;;;18.63;88.76
79463;BME280;68931;47.286;18.756;2023-07-24T01:51:06;100294.06;;;18.73;88.92
79463;BME280;68931;47.286;18.756;2023-07-24T01:51:39;100294.78;;;18.75;88.53
79463;BME280;68931;47.286;18.756;2023-07-24T01:52:13;100281.94;;;18.71;88.69
79463;BME280;68931;47.286;18.756;2023-07-24T01:52:45;100287.78;;;18.74;88.53
79463;BME280;68931;47.286;18.756;2023-07-24T01:53:17;100295.47;;;18.77;88.59
79463;BME280;68931;47.286;18.756;2023-07-24T01:53:49;100296.16;;;18.79;88.56
79463;BME280;68931;47.286;18.756;2023-07-24T01:54:24;100300.50;;;18.81;88.48
79463;BME280;68931;47.286;18.756;2023-07-24T01:54:57;100271.84;;;18.65;88.61
79463;BME280;68931;47.286;18.756;2023-07-24T01:55:31;100276.47;;;18.72;88.15
79463;BME280;68931;47.286;18.756;2023-07-24T01:56:03;100266.25;;;18.68;88.16
79463;BME280;68931;47.286;18.756;2023-07-24T01:56:39;100295.56;;;18.86;88.47
79463;BME280;68931;47.286;18.756;2023-07-24T01:57:11;100291.09;;;18.86;88.48
79463;BME280;68931;47.286;18.756;2023-07-24T01:57:43;100292.22;;;18.84;88.29
79463;BME280;68931;47.286;18.756;2023-07-24T01:58:15;100270.16;;;18.73;88.67
79463;BME280;68931;47.286;18.756;2023-07-24T01:58:47;100281.47;;;18.75;88.75
79463;BME280;68931;47.286;18.756;2023-07-24T01:59:19;100280.50;;;18.76;88.93
79463;BME280;68931;47.286;18.756;2023-07-24T01:59:51;100281.19;;;18.78;88.79
79463;BME280;68931;47.286;18.756;2023-07-24T02:00:23;100293.06;;;18.84;89.00
79463;BME280;68931;47.286;18.756;2023-07-24T02:00:55;100296.97;;;18.90;88.96
79463;BME280;68931;47.286;18.756;2023-07-24T02:01:27;100296.97;;;18.90;88.86
79463;BME280;68931;47.286;18.756;2023-07-24T02:01:59;100291.09;;;18.86;89.15
79463;BME280;68931;47.286;18.756;2023-07-24T02:02:31;100285.09;;;18.84;88.89
79463;BME280;68931;47.286;18.756;2023-07-24T02:03:03;100273.91;;;18.81;89.11
79463;BME280;68931;47.286;18.756;2023-07-24T02:03:35;100291.47;;;18.91;89.05
79463;BME280;68931;47.286;18.756;2023-07-24T02:04:07;100283.25;;;18.85;89.08
79463;BME280;68931;47.286;18.756;2023-07-24T02:04:39;100274.59;;;18.83;88.67
79463;BME280;68931;47.286;18.756;2023-07-24T02:05:12;100298.91;;;18.97;89.25
79463;BME280;68931;47.286;18.756;2023-07-24T02:05:49;100297.22;;;18.96;88.76
79463;BME280;68931;47.286;18.756;2023-07-24T02:06:21;100300.41;;;19.00;89.05
79463;BME280;68931;47.286;18.756;2023-07-24T02:06:53;100291.34;;;18.93;88.86
79463;BME280;68931;47.286;18.756;2023-07-24T02:07:25;100294.09;;;19.01;88.90
79463;BME280;68931;47.286;18.756;2023-07-24T02:07:57;100300.25;;;19.01;88.85
79463;BME280;68931;47.286;18.756;2023-07-24T02:08:29;100289.75;;;19.00;88.67
79463;BME280;68931;47.286;18.756;2023-07-24T02:09:01;100298.00;;;19.06;89.02
79463;BME280;68931;47.286;18.756;2023-07-24T02:09:34;100281.41;;;18.95;88.75
79463;BME280;68931;47.286;18.756;2023-07-24T02:10:06;100287.81;;;19.02;88.86
79463;BME280;68931;47.286;18.756;2023-07-24T02:10:38;100290.47;;;19.02;88.79
79463;BME280;68931;47.286;18.756;2023-07-24T02:11:10;100297.19;;;19.06;88.88
79463;BME280;68931;47.286;18.756;2023-07-24T02:11:42;100283.47;;;19.01;88.97
79463;BME280;68931;47.286;18.756;2023-07-24T02:12:14;100296.19;;;19.07;88.80
79463;BME280;68931;47.286;18.756;2023-07-24T02:12:46;100272.16;;;18.99;88.75
79463;BME280;68931;47.286;18.756;2023-07-24T02:13:18;100299.94;;;19.14;88.68
79463;BME280;68931;47.286;18.756;2023-07-24T02:13:50;100302.59;;;19.14;88.64
79463;BME280;68931;47.286;18.756;2023-07-24T02:14:22;100299.78;;;19.15;88.37
79463;BME280;68931;47.286;18.756;2023-07-24T02:14:56;100286.41;;;19.07;88.16
79463;BME280;68931;47.286;18.756;2023-07-24T02:15:29;100294.47;;;19.15;88.09
79463;BME280;68931;47.286;18.756;2023-07-24T02:16:01;100295.97;;;19.18;88.53
79463;BME280;68931;47.286;18.756;2023-07-24T02:16:33;100291.34;;;19.20;88.81
79463;BME280;68931;47.286;18.756;2023-07-24T02:17:05;100294.84;;;19.21;88.88
79463;BME280;68931;47.286;18.756;2023-07-24T02:17:37;100287.63;;;19.13;88.99
79463;BME280;68931;47.286;18.756;2023-07-24T02:18:09;100284.66;;;19.16;89.27
79463;BME280;68931;47.286;18.756;2023-07-24T02:18:42;100300.03;;;19.22;89.09
79463;BME280;68931;47.286;18.756;2023-07-24T02:19:15;100273.25;;;19.06;88.96
79463;BME280;68931;47.286;18.756;2023-07-24T02:19:47;100288.31;;;19.15;88.83
79463;BME280;68931;47.286;18.756;2023-07-24T02:20:19;100300.03;;;19.22;89.08
79463;BME280;68931;47.286;18.756;2023-07-24T02:20:51;100288.00;;;19.18;88.90
79463;BME280;68931;47.286;18.756;2023-07-24T02:21:26;100289.25;;;19.24;88.29
79463;BME280;68931;47.286;18.756;2023-07-24T02:21:58;100283.69;;;19.17;88.67
79463;BME280;68931;47.286;18.756;2023-07-24T02:22:31;100267.78;;;19.07;88.72
79463;BME280;68931;47.286;18.756;2023-07-24T02:23:03;100283.09;;;19.23;88.50
79463;BME280;68931;47.286;18.756;2023-07-24T02:23:36;100276.00;;;19.14;88.67
79463;BME280;68931;47.286;18.756;2023-07-24T02:24:08;100274.31;;;19.13;88.38
79463;BME280;68931;47.286;18.756;2023-07-24T02:24:40;100281.16;;;19.15;88.53
79463;BME280;68931;47.286;18.756;2023-07-24T02:25:12;100268.31;;;19.11;88.38
79463;BME280;68931;47.286;18.756;2023-07-24T02:25:44;100281.03;;;19.17;88.25
79463;BME280;68931;47.286;18.756;2023-07-24T02:26:15;100284.34;;;19.19;88.04
79463;BME280;68931;47.286;18.756;2023-07-24T02:26:47;100287.41;;;19.24;87.97
79463;BME280;68931;47.286;18.756;2023-07-24T02:27:27;100279.03;;;19.19;87.96
79463;BME280;68931;47.286;18.756;2023-07-24T02:27:59;100290.38;;;19.21;87.96
79463;BME280;68931;47.286;18.756;2023-07-24T02:28:34;100283.69;;;19.17;87.76
79463;BME280;68931;47.286;18.756;2023-07-24T02:29:06;100281.16;;;19.15;87.28
79463;BME280;68931;47.286;18.756;2023-07-24T02:29:38;100295.41;;;19.24;87.02
79463;BME280;68931;47.286;18.756;2023-07-24T02:30:10;100270.69;;;19.14;87.46
79463;BME280;68931;47.286;18.756;2023-07-24T02:30:43;100286.19;;;19.18;87.41
79463;BME280;68931;47.286;18.756;2023-07-24T02:31:15;100287.84;;;19.20;87.38
79463;BME280;68931;47.286;18.756;2023-07-24T02:31:47;100293.03;;;19.21;87.33
79463;BME280;68931;47.286;18.756;2023-07-24T02:32:20;100281.84;;;19.17;87.34
79463;BME280;68931;47.286;18.756;2023-07-24T02:32:53;100289.53;;;19.21;87.46
79463;BME280;68931;47.286;18.756;2023-07-24T02:33:27;100282.00;;;19.16;87.55
79463;BME280;68931;47.286;18.756;2023-07-24T02:33:59;100280.34;;;19.15;87.31
79463;BME280;68931;47.286;18.756;2023-07-24T02:34:31;100291.50;;;19.18;87.27
79463;BME280;68931;47.286;18.756;2023-07-24T02:35:03;100265.56;;;19.03;87.22
79463;BME280;68931;47.286;18.756;2023-07-24T02:35:42;100287.72;;;19.21;87.51
79463;BME280;68931;47.286;18.756;2023-07-24T02:36:14;100280.75;;;19.10;87.45
79463;BME280;68931;47.286;18.756;2023-07-24T02:36:46;100294.72;;;19.22;87.48
79463;BME280;68931;47.286;18.756;2023-07-24T02:37:21;100298.34;;;19.21;87.82
79463;BME280;68931;47.286;18.756;2023-07-24T02:37:52;100302.81;;;19.21;87.91
79463;BME280;68931;47.286;18.756;2023-07-24T02:38:24;100302.13;;;19.18;87.27
79463;BME280;68931;47.286;18.756;2023-07-24T02:38:56;100284.56;;;19.08;87.85
79463;BME280;68931;47.286;18.756;2023-07-24T02:39:28;100299.09;;;19.13;87.68
79463;BME280;68931;47.286;18.756;2023-07-24T02:40:00;100279.69;;;19.03;87.63
79463;BME280;68931;47.286;18.756;2023-07-24T02:40:33;100301.91;;;19.12;87.55
79463;BME280;68931;47.286;18.756;2023-07-24T02:41:05;100292.38;;;19.09;87.75
79463;BME280;68931;47.286;18.756;2023-07-24T02:41:37;100300.06;;;19.12;87.89
79463;BME280;68931;47.286;18.756;2023-07-24T02:42:09;100292.00;;;19.04;87.79
79463;BME280;68931;47.286;18.756;2023-07-24T02:42:41;100268.38;;;18.92;87.68
79463;BME280;68931;47.286;18.756;2023-07-24T02:43:13;100294.09;;;19.01;87.62
79463;BME280;68931;47.286;18.756;2023-07-24T02:43:45;100269.53;;;18.89;87.62
79463;BME280;68931;47.286;18.756;2023-07-24T02:44:17;100294.78;;;19.03;87.63
79463;BME280;68931;47.286;18.756;2023-07-24T02:44:49;100287.00;;;18.92;88.06
79463;BME280;68931;47.286;18.756;2023-07-24T02:45:21;100305.91;;;18.98;87.83
79463;BME280;68931;47.286;18.756;2023-07-24T02:45:53;100304.75;;;19.01;88.03
79463;BME280;68931;47.286;18.756;2023-07-24T02:46:25;100277.94;;;18.85;87.65
79463;BME280;68931;47.286;18.756;2023-07-24T02:46:57;100287.47;;;18.87;87.95
79463;BME280;68931;47.286;18.756;2023-07-24T02:47:29;100294.97;;;18.92;87.66
79463;BME280;68931;47.286;18.756;2023-07-24T02:48:01;100287.75;;;18.84;87.83
79463;BME280;68931;47.286;18.756;2023-07-24T02:48:35;100292.22;;;18.84;87.89
79463;BME280;68931;47.286;18.756;2023-07-24T02:49:07;100285.22;;;18.83;87.78
79463;BME280;68931;47.286;18.756;2023-07-24T02:49:39;100276.88;;;18.77;88.19
79463;BME280;68931;47.286;18.756;2023-07-24T02:50:11;100286.06;;;18.83;88.52
79463;BME280;68931;47.286;18.756;2023-07-24T02:50:43;100280.50;;;18.76;88.23
79463;BME280;68931;47.286;18.756;2023-07-24T02:51:15;100286.91;;;18.84;88.12
79463;BME280;68931;47.286;18.756;2023-07-24T02:51:47;100281.34;;;18.77;88.34
79463;BME280;68931;47.286;18.756;2023-07-24T02:52:22;100300.91;;;18.86;88.80
79463;BME280;68931;47.286;18.756;2023-07-24T02:53:00;100302.00;;;18.83;88.51
79463;BME280;68931;47.286;18.756;2023-07-24T02:53:32;100282.63;;;18.73;88.60